createdAt,value
2023-03-08T00:01:35.672Z,99421.41
2023-03-08T00:04:04.521Z,99422.50
2023-03-08T00:06:33.190Z,99425.13
2023-03-08T00:09:06.325Z,99426.48
2023-03-08T00:11:34.536Z,99429.91
2023-03-08T00:14:03.684Z,99429.56
2023-03-08T00:16:31.815Z,99428.52
2023-03-08T00:18:59.966Z,99428.18
2023-03-08T00:21:28.432Z,99433.75
2023-03-08T00:23:57.265Z,99429.36
2023-03-08T00:26:25.839Z,99432.14
2023-03-08T00:28:54.449Z,99429.27
2023-03-08T00:31:23.697Z,99433.36
2023-03-08T00:33:55.658Z,99430.73
2023-03-08T00:36:26.305Z,99429.90
2023-03-08T00:38:57.202Z,99431.62
2023-03-08T00:41:25.322Z,99431.02
2023-03-08T00:43:54.072Z,99428.73
2023-03-08T00:46:22.856Z,99429.38
2023-03-08T00:48:54.853Z,99431.72
2023-03-08T00:51:22.935Z,99429.75
2023-03-08T00:53:55.698Z,99425.23
2023-03-08T00:56:24.527Z,99422.85
2023-03-08T00:58:53.227Z,99419.70
2023-03-08T01:01:21.959Z,99419.96
2023-03-08T01:03:51.755Z,99416.39
2023-03-08T01:06:21.529Z,99413.50
2023-03-08T01:08:50.998Z,99409.95
2023-03-08T01:11:21.666Z,99406.42
2023-03-08T01:13:50.415Z,99396.59
2023-03-08T01:16:24.277Z,99390.81
2023-03-08T01:18:53.241Z,99390.20
2023-03-08T01:21:22.166Z,99386.78
2023-03-08T01:23:52.213Z,99379.76
2023-03-08T01:26:22.189Z,99378.52
2023-03-08T01:28:50.694Z,99378.91
2023-03-08T01:31:29.517Z,99383.67
2023-03-08T01:33:59.194Z,99383.48
2023-03-08T01:36:27.776Z,99387.98
2023-03-08T01:38:56.922Z,99386.48
2023-03-08T01:41:27.832Z,99384.77
2023-03-08T01:43:58.260Z,99382.35
2023-03-08T01:46:31.328Z,99371.77
2023-03-08T01:49:25.069Z,99367.23
2023-03-08T01:52:01.948Z,99360.46
2023-03-08T01:54:44.223Z,99353.10
2023-03-08T01:57:18.529Z,99347.52
2023-03-08T01:59:49.262Z,99343.39
2023-03-08T02:02:23.349Z,99336.48
2023-03-08T02:04:51.920Z,99333.16
2023-03-08T02:07:21.031Z,99328.86
2023-03-08T02:09:50.490Z,99325.16
2023-03-08T02:12:19.345Z,99318.21
2023-03-08T02:14:50.170Z,99304.98
2023-03-08T02:17:18.773Z,99294.50
2023-03-08T02:19:56.261Z,99288.79
2023-03-08T02:22:26.474Z,99281.70
2023-03-08T02:24:55.138Z,99285.02
2023-03-08T02:27:26.641Z,99285.81
2023-03-08T02:29:55.514Z,99282.61
2023-03-08T02:32:28.089Z,99282.34
2023-03-08T02:34:57.224Z,99277.59
2023-03-08T02:37:25.947Z,99270.52
2023-03-08T02:39:59.233Z,99266.50
2023-03-08T02:42:27.974Z,99248.77
2023-03-08T02:44:56.924Z,99244.34
2023-03-08T02:47:26.071Z,99234.71
2023-03-08T02:49:54.809Z,99220.98
2023-03-08T02:52:23.318Z,99215.77
2023-03-08T02:54:54.220Z,99211.92
2023-03-08T02:57:24.490Z,99204.47
2023-03-08T02:59:53.883Z,99206.65
2023-03-08T03:02:24.191Z,99207.27
2023-03-08T03:04:52.817Z,99203.98
2023-03-08T03:07:21.378Z,99197.83
2023-03-08T03:09:53.206Z,99198.31
2023-03-08T03:12:22.510Z,99187.02
2023-03-08T03:14:52.315Z,99172.36
2023-03-08T03:17:21.100Z,99161.25
2023-03-08T03:19:49.818Z,99151.34
2023-03-08T03:22:23.102Z,99150.50
2023-03-08T03:24:51.944Z,99142.00
2023-03-08T03:27:20.640Z,99132.41
2023-03-08T03:29:49.658Z,99121.48
2023-03-08T03:32:19.489Z,99109.63
2023-03-08T03:34:48.496Z,99103.89
2023-03-08T03:37:18.721Z,99090.66
2023-03-08T03:39:47.562Z,99076.20
2023-03-08T03:42:17.748Z,99054.24
2023-03-08T03:44:52.409Z,99033.11
2023-03-08T03:47:22.630Z,99013.00
2023-03-08T03:49:54.313Z,98989.21
2023-03-08T03:52:23.618Z,98966.67
2023-03-08T03:54:58.973Z,98943.00
2023-03-08T03:57:28.094Z,98909.14
2023-03-08T04:00:17.651Z,98871.92
2023-03-08T04:02:53.933Z,98844.39
2023-03-08T04:05:22.956Z,98808.88
2023-03-08T04:07:53.893Z,98770.02
2023-03-08T04:10:25.693Z,98734.57
2023-03-08T04:12:55.002Z,98676.12
2023-03-08T04:15:24.217Z,98641.45
2023-03-08T04:17:55.204Z,98606.46
2023-03-08T04:20:24.772Z,98568.71
2023-03-08T04:22:57.520Z,98536.38
2023-03-08T04:25:30.955Z,98510.23
2023-03-08T04:28:02.463Z,98485.30
2023-03-08T04:30:31.963Z,98454.27
2023-03-08T04:33:03.073Z,98436.30
2023-03-08T04:35:42.691Z,98422.15
2023-03-08T04:38:13.004Z,98415.88
2023-03-08T04:41:16.960Z,98413.64
2023-03-08T04:44:00.039Z,98408.98
2023-03-08T04:46:41.499Z,98414.86
2023-03-08T04:49:10.614Z,98419.98
2023-03-08T04:51:42.686Z,98423.17
2023-03-08T04:54:11.477Z,98433.30
2023-03-08T04:56:44.513Z,98437.77
2023-03-08T04:59:16.105Z,98453.27
2023-03-08T05:01:45.417Z,98469.32
2023-03-08T05:04:14.813Z,98486.50
2023-03-08T05:06:47.366Z,98504.18
2023-03-08T05:09:21.197Z,98506.16
2023-03-08T05:11:52.212Z,98534.88
2023-03-08T05:14:22.119Z,98563.44
2023-03-08T05:16:56.368Z,98590.84
2023-03-08T05:19:26.102Z,98621.64
2023-03-08T05:21:56.367Z,98643.61
2023-03-08T05:24:28.090Z,98673.86
2023-03-08T05:26:57.487Z,98714.15
2023-03-08T05:29:27.408Z,98747.91
2023-03-08T05:31:58.004Z,98767.31
2023-03-08T05:34:27.299Z,98777.83
2023-03-08T05:36:57.155Z,98783.23
2023-03-08T05:39:28.815Z,98794.17
2023-03-08T05:42:03.368Z,98806.13
2023-03-08T05:44:38.464Z,98804.83
2023-03-08T05:47:08.268Z,98808.02
2023-03-08T05:49:38.294Z,98799.52
2023-03-08T05:52:09.270Z,98778.09
2023-03-08T05:54:39.912Z,98753.17
2023-03-08T05:57:12.736Z,98739.96
2023-03-08T05:59:42.161Z,98743.59
2023-03-08T06:02:17.832Z,98741.61
2023-03-08T06:04:51.064Z,98732.11
2023-03-08T06:07:23.791Z,98722.95
2023-03-08T06:10:06.505Z,98727.13
2023-03-08T06:12:36.554Z,98720.09
2023-03-08T06:15:08.405Z,98719.08
2023-03-08T06:17:41.569Z,98728.30
2023-03-08T06:20:11.171Z,98732.02
2023-03-08T06:22:43.149Z,98732.82
2023-03-08T06:25:12.325Z,98754.56
2023-03-08T06:27:41.870Z,98758.50
2023-03-08T06:30:17.344Z,98801.23
2023-03-08T06:32:47.079Z,98813.09
2023-03-08T06:35:16.111Z,98855.30
2023-03-08T06:37:49.113Z,98876.84
2023-03-08T06:40:18.762Z,98896.45
2023-03-08T06:42:52.556Z,98908.06
2023-03-08T06:45:21.919Z,98922.52
2023-03-08T06:47:50.765Z,98945.89
2023-03-08T06:50:19.584Z,98951.01
2023-03-08T06:52:49.515Z,98956.57
2023-03-08T06:55:19.925Z,98968.08
2023-03-08T06:57:48.898Z,98984.03
2023-03-08T07:00:18.805Z,98996.37
2023-03-08T07:02:48.872Z,99006.27
2023-03-08T07:05:17.582Z,99009.36
2023-03-08T07:07:47.977Z,99033.21
2023-03-08T07:10:18.156Z,99072.41
2023-03-08T07:12:52.645Z,99116.11
2023-03-08T07:15:23.746Z,99157.02
2023-03-08T07:17:55.997Z,99198.83
2023-03-08T07:20:26.057Z,99224.59
2023-03-08T07:22:56.189Z,99249.58
2023-03-08T07:25:25.030Z,99283.81
2023-03-08T07:28:00.485Z,99319.27
2023-03-08T07:30:29.563Z,99353.80
2023-03-08T07:32:58.778Z,99371.89
2023-03-08T07:35:31.139Z,99393.52
2023-03-08T07:38:02.584Z,99436.51
2023-03-08T07:40:31.728Z,99477.17
2023-03-08T07:43:01.329Z,99508.91
2023-03-08T07:45:38.487Z,99538.46
2023-03-08T07:48:07.142Z,99543.00
2023-03-08T07:50:38.411Z,99597.85
2023-03-08T07:53:10.444Z,99617.52
2023-03-08T07:55:40.115Z,99623.12
2023-03-08T07:58:11.609Z,99637.58
2023-03-08T08:00:41.882Z,99670.41
2023-03-08T08:03:11.918Z,99681.46
2023-03-08T08:05:41.378Z,99695.02
2023-03-08T08:08:14.056Z,99731.45
2023-03-08T08:10:45.676Z,99740.88
2023-03-08T08:13:18.341Z,99749.91
2023-03-08T08:15:47.248Z,99762.70
2023-03-08T08:18:16.308Z,99781.30
2023-03-08T08:20:45.138Z,99789.21
2023-03-08T08:23:16.064Z,99794.37
2023-03-08T08:25:47.918Z,99777.73
2023-03-08T08:28:16.536Z,99796.58
2023-03-08T08:30:45.115Z,99805.26
2023-03-08T08:33:13.925Z,99820.33
2023-03-08T08:35:43.743Z,99834.15
2023-03-08T08:38:13.056Z,99844.22
2023-03-08T08:40:42.457Z,99858.20
2023-03-08T08:43:12.890Z,99875.90
2023-03-08T08:45:46.495Z,99890.26
2023-03-08T08:48:15.780Z,99907.23
2023-03-08T08:50:44.832Z,99901.86
2023-03-08T08:53:13.699Z,99904.45
2023-03-08T08:55:45.445Z,99890.80
2023-03-08T08:58:16.584Z,99868.79
2023-03-08T09:00:45.966Z,99867.80
2023-03-08T09:03:14.755Z,99857.52
2023-03-08T09:05:45.809Z,99824.79
2023-03-08T09:08:14.898Z,99794.50
2023-03-08T09:10:44.297Z,99754.56
2023-03-08T09:13:13.089Z,99728.20
2023-03-08T09:15:42.026Z,99701.72
2023-03-08T09:18:12.694Z,99675.61
2023-03-08T09:20:43.644Z,99639.71
2023-03-08T09:23:12.497Z,99602.68
2023-03-08T09:25:41.236Z,99565.84
2023-03-08T09:28:12.567Z,99521.52
2023-03-08T09:30:41.282Z,99477.71
2023-03-08T09:33:11.378Z,99434.71
2023-03-08T09:35:41.384Z,99387.06
2023-03-08T09:38:13.612Z,99347.70
2023-03-08T09:40:48.573Z,99301.17
2023-03-08T09:43:24.164Z,99232.01
2023-03-08T09:45:53.950Z,99135.95
2023-03-08T09:48:26.195Z,99058.61
2023-03-08T09:50:57.493Z,98977.68
2023-03-08T09:53:27.063Z,98893.27
2023-03-08T09:56:01.819Z,98827.20
2023-03-08T09:58:42.800Z,98771.63
2023-03-08T10:01:24.194Z,98752.42
2023-03-08T10:04:30.370Z,98718.84
2023-03-08T10:07:21.808Z,98700.54
2023-03-08T10:10:02.857Z,98729.08
2023-03-08T10:12:59.619Z,98772.28
2023-03-08T10:15:51.204Z,98832.12
2023-03-08T10:18:29.585Z,98878.31
2023-03-08T10:21:01.270Z,98931.88
2023-03-08T10:23:33.748Z,98975.80
2023-03-08T10:26:07.225Z,99029.60
2023-03-08T10:28:37.539Z,99074.28
2023-03-08T10:31:18.630Z,99103.76
2023-03-08T10:33:47.826Z,99131.58
2023-03-08T10:36:21.776Z,99162.79
2023-03-08T10:39:06.196Z,99225.70
2023-03-08T10:41:50.913Z,99242.70
2023-03-08T10:44:43.008Z,99262.23
2023-03-08T10:47:22.893Z,99270.83
2023-03-08T10:50:18.866Z,99285.70
2023-03-08T10:52:51.172Z,99302.21
2023-03-08T10:55:27.766Z,99321.21
2023-03-08T10:57:58.647Z,99334.46
2023-03-08T11:00:38.217Z,99351.21
2023-03-08T11:03:14.629Z,99369.13
2023-03-08T11:05:53.633Z,99381.36
2023-03-08T11:08:30.326Z,99392.12
2023-03-08T11:11:09.866Z,99403.30
2023-03-08T11:13:42.081Z,99419.25
2023-03-08T11:16:39.313Z,99424.66
2023-03-08T11:20:14.088Z,99429.83
2023-03-08T11:22:54.042Z,99441.70
2023-03-08T11:25:31.850Z,99459.61
2023-03-08T11:28:42.361Z,99466.20
2023-03-08T11:31:37.911Z,99469.90
2023-03-08T11:34:15.840Z,99484.05
2023-03-08T11:36:52.496Z,99488.66
2023-03-08T11:39:27.082Z,99491.94
2023-03-08T11:42:21.050Z,99503.90
2023-03-08T11:44:53.033Z,99501.56
2023-03-08T11:48:06.606Z,99507.21
2023-03-08T11:50:43.190Z,99510.60
2023-03-08T11:53:20.326Z,99513.31
2023-03-08T11:56:14.339Z,99525.16
2023-03-08T11:58:49.235Z,99529.36
2023-03-08T12:01:24.503Z,99532.84
2023-03-08T12:03:56.469Z,99543.23
2023-03-08T12:06:35.611Z,99543.21
2023-03-08T12:09:31.151Z,99543.59
2023-03-08T12:12:18.304Z,99551.30
2023-03-08T12:15:11.170Z,99555.09
2023-03-08T12:17:46.604Z,99561.66
2023-03-08T12:20:16.335Z,99564.56
2023-03-08T12:23:12.711Z,99559.84
2023-03-08T12:25:42.174Z,99539.75
2023-03-08T12:28:24.566Z,99508.60
2023-03-08T12:31:27.318Z,99481.39
2023-03-08T12:33:58.422Z,99470.48
2023-03-08T12:36:39.913Z,99470.81
2023-03-08T12:39:28.471Z,99457.38
2023-03-08T12:42:11.198Z,99446.02
2023-03-08T12:44:40.455Z,99445.04
2023-03-08T12:47:13.775Z,99445.84
2023-03-08T12:49:47.501Z,99439.30
2023-03-08T12:52:18.416Z,99438.91
2023-03-08T12:55:01.200Z,99434.80
2023-03-08T12:57:45.295Z,99433.48
2023-03-08T13:00:20.159Z,99429.58
2023-03-08T13:03:02.370Z,99425.34
2023-03-08T13:05:35.688Z,99427.58
2023-03-08T13:08:18.709Z,99421.93
2023-03-08T13:10:50.120Z,99422.20
2023-03-08T13:13:38.615Z,99418.33
2023-03-08T13:16:20.501Z,99416.33
2023-03-08T13:18:52.810Z,99437.15
2023-03-08T13:21:36.183Z,99447.37
2023-03-08T13:24:09.079Z,99443.60
2023-03-08T13:26:57.986Z,99438.64
2023-03-08T13:29:29.258Z,99431.88
2023-03-08T13:31:57.911Z,99429.17
2023-03-08T13:34:32.402Z,99426.26
2023-03-08T13:37:02.065Z,99420.45
2023-03-08T13:39:31.872Z,99414.27
2023-03-08T13:42:07.883Z,99408.77
2023-03-08T13:44:37.152Z,99407.96
2023-03-08T13:47:16.238Z,99413.23
2023-03-08T13:49:46.040Z,99421.44
2023-03-08T13:52:25.204Z,99420.46
2023-03-08T13:54:55.510Z,99418.04
2023-03-08T13:57:26.857Z,99426.61
2023-03-08T13:59:57.536Z,99422.59
2023-03-08T14:06:43.686Z,99423.52
2023-03-08T14:09:12.480Z,99423.89
2023-03-08T14:11:41.374Z,99422.02
2023-03-08T14:14:27.126Z,99421.04
2023-03-08T14:16:56.265Z,99421.67
2023-03-08T14:19:29.886Z,99426.10
2023-03-08T14:22:10.437Z,99430.10
2023-03-08T14:24:39.467Z,99424.80
2023-03-08T14:27:16.622Z,99429.13
2023-03-08T14:29:45.930Z,99437.04
2023-03-08T14:32:14.928Z,99428.60
2023-03-08T14:34:48.669Z,99433.75
2023-03-08T14:37:30.729Z,99433.12
2023-03-08T14:40:30.747Z,99435.64
2023-03-08T14:43:02.463Z,99432.39
2023-03-08T14:45:37.137Z,99439.53
2023-03-08T14:48:18.191Z,99441.77
2023-03-08T14:50:55.384Z,99437.74
2023-03-08T14:53:35.648Z,99438.24
2023-03-08T14:56:11.951Z,99436.27
2023-03-08T14:58:44.034Z,99431.35
2023-03-08T15:01:36.680Z,99435.84
2023-03-08T15:04:17.990Z,99436.85
2023-03-08T15:06:46.918Z,99438.36
2023-03-08T15:09:17.505Z,99440.05
2023-03-08T15:11:47.449Z,99441.37
2023-03-08T15:14:16.198Z,99435.21
2023-03-08T15:16:47.911Z,99431.86
2023-03-08T15:19:17.400Z,99432.91
2023-03-08T15:21:46.020Z,99434.54
2023-03-08T15:24:17.879Z,99433.50
2023-03-08T15:26:46.809Z,99435.63
2023-03-08T15:29:28.548Z,99433.00
2023-03-08T15:31:57.505Z,99437.45
2023-03-08T15:34:28.257Z,99436.05
2023-03-08T15:36:57.225Z,99439.76
2023-03-08T15:39:25.967Z,99438.20
2023-03-08T15:41:54.901Z,99432.04
2023-03-08T15:44:23.720Z,99435.11
2023-03-08T15:46:53.046Z,99434.30
2023-03-08T15:49:22.510Z,99436.73
2023-03-08T15:51:50.556Z,99440.20
2023-03-08T15:54:19.102Z,99444.09
2023-03-08T15:56:47.694Z,99447.36
2023-03-08T15:59:16.245Z,99447.69
2023-03-08T16:01:45.197Z,99448.69
2023-03-08T16:04:13.958Z,99447.73
2023-03-08T16:06:44.938Z,99449.98
2023-03-08T16:09:13.397Z,99447.96
2023-03-08T16:11:52.568Z,99450.76
2023-03-08T16:14:21.830Z,99457.62
2023-03-08T16:16:50.022Z,99466.30
2023-03-08T16:19:18.382Z,99475.85
2023-03-08T16:21:48.003Z,99481.30
2023-03-08T16:24:16.604Z,99487.06
2023-03-08T16:26:46.019Z,99483.16
2023-03-08T16:29:14.770Z,99485.23
2023-03-08T16:31:46.569Z,99491.40
2023-03-08T16:34:15.746Z,99493.13
2023-03-08T16:36:44.571Z,99499.48
2023-03-08T16:39:13.946Z,99502.31
2023-03-08T16:41:42.691Z,99503.28
2023-03-08T16:44:25.229Z,99502.52
2023-03-08T16:46:54.022Z,99502.45
2023-03-08T16:49:28.391Z,99502.04
2023-03-08T16:51:57.180Z,99505.18
2023-03-08T16:54:26.926Z,99502.59
2023-03-08T16:56:55.480Z,99499.38
2023-03-08T16:59:24.158Z,99495.46
2023-03-08T17:01:52.753Z,99494.88
2023-03-08T17:04:22.953Z,99492.71
2023-03-08T17:06:51.472Z,99495.91
2023-03-08T17:09:20.424Z,99497.42
2023-03-08T17:11:49.608Z,99495.23
2023-03-08T17:14:19.918Z,99496.61
2023-03-08T17:16:50.445Z,99499.71
2023-03-08T17:19:18.672Z,99504.41
2023-03-08T17:21:47.100Z,99505.26
2023-03-08T17:24:17.655Z,99501.98
2023-03-08T17:26:48.347Z,99504.20
2023-03-08T17:29:17.133Z,99500.48
2023-03-08T17:31:45.809Z,99498.13
2023-03-08T17:34:14.559Z,99495.70
2023-03-08T17:36:43.597Z,99487.20
2023-03-08T17:39:14.443Z,99484.27
2023-03-08T17:41:44.884Z,99489.63
2023-03-08T17:44:14.550Z,99487.09
2023-03-08T17:46:43.120Z,99487.23
2023-03-08T17:49:13.462Z,99486.26
2023-03-08T17:51:42.812Z,99486.85
2023-03-08T17:54:12.387Z,99480.13
2023-03-08T17:56:42.355Z,99478.60
2023-03-08T17:59:13.317Z,99471.23
2023-03-08T18:01:42.544Z,99471.80
2023-03-08T18:04:11.266Z,99469.56
2023-03-08T18:06:42.007Z,99476.85
2023-03-08T18:09:18.506Z,99473.45
2023-03-08T18:11:48.581Z,99471.06
2023-03-08T18:14:17.324Z,99464.95
2023-03-08T18:16:46.972Z,99469.98
2023-03-08T18:19:17.033Z,99468.86
2023-03-08T18:21:54.384Z,99470.65
2023-03-08T18:24:23.794Z,99476.87
2023-03-08T18:26:53.345Z,99481.68
2023-03-08T18:29:22.623Z,99482.85
2023-03-08T18:31:53.265Z,99477.70
2023-03-08T18:34:22.223Z,99480.65
2023-03-08T18:36:50.970Z,99484.44
2023-03-08T18:39:19.563Z,99483.73
2023-03-08T18:41:48.846Z,99482.25
2023-03-08T18:44:18.120Z,99481.11
2023-03-08T18:46:50.673Z,99486.30
2023-03-08T18:49:19.687Z,99489.09
2023-03-08T18:51:48.875Z,99493.60
2023-03-08T18:54:20.834Z,99496.61
2023-03-08T18:56:53.820Z,99498.18
2023-03-08T18:59:23.170Z,99499.45
2023-03-08T19:01:52.279Z,99493.25
2023-03-08T19:04:21.525Z,99484.56
2023-03-08T19:06:51.418Z,99484.13
2023-03-08T19:09:22.100Z,99482.22
2023-03-08T19:11:51.489Z,99477.70
2023-03-08T19:14:21.013Z,99471.36
2023-03-08T19:16:51.183Z,99468.23
2023-03-08T19:19:20.612Z,99465.56
2023-03-08T19:21:49.720Z,99467.27
2023-03-08T19:24:19.779Z,99462.61
2023-03-08T19:26:51.410Z,99460.77
2023-03-08T19:29:30.093Z,99464.63
2023-03-08T19:32:02.265Z,99461.94
2023-03-08T19:34:32.229Z,99457.66
2023-03-08T19:37:01.743Z,99454.60
2023-03-08T19:39:33.496Z,99462.63
2023-03-08T19:42:08.807Z,99465.61
2023-03-08T19:44:38.423Z,99459.16
2023-03-08T19:47:10.636Z,99450.73
2023-03-08T19:49:40.178Z,99454.58
2023-03-08T19:52:11.479Z,99454.92
2023-03-08T19:54:42.709Z,99447.31
2023-03-08T19:57:12.363Z,99433.98
2023-03-08T19:59:43.696Z,99437.27
2023-03-08T20:02:13.197Z,99430.00
2023-03-08T20:04:42.974Z,99426.35
2023-03-08T20:07:13.436Z,99423.38
2023-03-08T20:09:42.982Z,99419.10
2023-03-08T20:12:13.918Z,99419.77
2023-03-08T20:14:43.206Z,99421.10
2023-03-08T20:17:12.442Z,99417.44
2023-03-08T20:19:43.241Z,99408.55
2023-03-08T20:22:12.064Z,99400.75
2023-03-08T20:24:44.471Z,99392.48
2023-03-08T20:27:13.860Z,99399.63
2023-03-08T20:29:42.602Z,99409.24
2023-03-08T20:32:11.402Z,99415.65
2023-03-08T20:34:40.284Z,99409.80
2023-03-08T20:37:09.260Z,99401.12
2023-03-08T20:39:38.696Z,99401.88
2023-03-08T20:42:08.292Z,99401.11
2023-03-08T20:44:37.415Z,99392.78
2023-03-08T20:47:06.386Z,99388.48
2023-03-08T20:49:36.759Z,99396.07
2023-03-08T20:52:06.663Z,99401.95
2023-03-08T20:54:37.575Z,99405.02
2023-03-08T20:57:06.345Z,99408.65
2023-03-08T20:59:34.620Z,99404.24
2023-03-08T21:02:03.168Z,99403.23
2023-03-08T21:04:31.689Z,99395.56
2023-03-08T21:07:01.324Z,99385.96
2023-03-08T21:09:33.081Z,99380.98
2023-03-08T21:12:01.382Z,99373.98
2023-03-08T21:14:29.812Z,99366.53
2023-03-08T21:16:58.780Z,99369.09
2023-03-08T21:19:27.518Z,99366.55
2023-03-08T21:21:56.883Z,99365.71
2023-03-08T21:24:25.950Z,99367.19
2023-03-08T21:26:54.660Z,99366.70
2023-03-08T21:29:25.435Z,99366.27
2023-03-08T21:31:54.568Z,99359.40
2023-03-08T21:34:24.130Z,99357.30
2023-03-08T21:36:53.044Z,99359.59
2023-03-08T21:39:22.890Z,99354.89
2023-03-08T21:41:53.109Z,99352.46
2023-03-08T21:44:21.885Z,99352.33
2023-03-08T21:46:52.219Z,99351.34
2023-03-08T21:49:25.784Z,99352.70
2023-03-08T21:51:57.429Z,99349.51
2023-03-08T21:54:29.075Z,99351.37
2023-03-08T21:56:57.778Z,99349.45
2023-03-08T21:59:27.836Z,99346.41
2023-03-08T22:01:59.025Z,99347.12
2023-03-08T22:04:31.787Z,99344.65
2023-03-08T22:06:59.756Z,99341.75
2023-03-08T22:09:29.957Z,99339.29
2023-03-08T22:12:00.037Z,99344.69
2023-03-08T22:14:29.113Z,99337.64
2023-03-08T22:17:03.474Z,99339.27
2023-03-08T22:19:32.809Z,99341.73
2023-03-08T22:22:01.144Z,99347.02
2023-03-08T22:24:33.017Z,99341.44
2023-03-08T22:27:02.538Z,99336.75
2023-03-08T22:29:31.687Z,99330.44
2023-03-08T22:32:01.129Z,99324.77
2023-03-08T22:34:29.851Z,99322.21
2023-03-08T22:36:58.617Z,99312.48
2023-03-08T22:39:28.374Z,99305.64
2023-03-08T22:41:57.678Z,99303.86
2023-03-08T22:44:26.339Z,99296.50
2023-03-08T22:46:54.952Z,99285.42
2023-03-08T22:49:23.583Z,99277.20
2023-03-08T22:51:55.040Z,99274.50
2023-03-08T22:54:23.337Z,99269.13
2023-03-08T22:56:51.679Z,99257.65
2023-03-08T22:59:19.905Z,99248.59
2023-03-08T23:01:49.424Z,99234.66
2023-03-08T23:04:18.579Z,99236.38
2023-03-08T23:06:47.976Z,99226.55
2023-03-08T23:09:17.305Z,99220.27
2023-03-08T23:11:47.326Z,99214.92
2023-03-08T23:14:16.571Z,99216.48
2023-03-08T23:16:46.348Z,99212.16
2023-03-08T23:19:19.419Z,99208.48
2023-03-08T23:22:07.231Z,99226.33
2023-03-08T23:24:36.079Z,99224.23
2023-03-08T23:27:04.479Z,99219.46
2023-03-08T23:29:33.107Z,99209.10
2023-03-08T23:32:02.060Z,99206.98
2023-03-08T23:34:31.814Z,99206.10
2023-03-08T23:37:05.838Z,99198.45
2023-03-08T23:39:42.448Z,99173.08
2023-03-08T23:42:10.700Z,99167.06
2023-03-08T23:44:41.249Z,99153.91
2023-03-08T23:47:12.434Z,99149.49
2023-03-08T23:49:41.284Z,99142.88
2023-03-08T23:52:09.348Z,99138.40
2023-03-08T23:54:39.005Z,99126.95
2023-03-08T23:57:07.282Z,99126.07
2023-03-08T23:59:35.351Z,99121.33
